createdAt,value
2023-05-18T00:01:14.508Z,7.10
2023-05-18T00:03:42.394Z,6.95
2023-05-18T00:06:10.095Z,6.38
2023-05-18T00:08:38.320Z,6.43
2023-05-18T00:11:06.137Z,6.45
2023-05-18T00:13:33.905Z,6.93
2023-05-18T00:16:01.056Z,6.28
2023-05-18T00:18:28.586Z,6.85
2023-05-18T00:20:58.723Z,7.03
2023-05-18T00:23:30.012Z,7.00
2023-05-18T00:25:58.700Z,7.25
2023-05-18T00:28:26.403Z,7.63
2023-05-18T00:30:54.431Z,6.65
2023-05-18T00:33:22.730Z,6.88
2023-05-18T00:35:49.666Z,7.22
2023-05-18T00:38:16.735Z,6.95
2023-05-18T00:40:43.955Z,7.63
2023-05-18T00:43:12.101Z,7.15
2023-05-18T00:45:39.363Z,7.18
2023-05-18T00:48:07.273Z,7.70
2023-05-18T00:50:34.939Z,6.97
2023-05-18T00:53:02.086Z,7.40
2023-05-18T00:55:29.234Z,8.30
2023-05-18T00:57:57.304Z,7.50
2023-05-18T01:00:24.567Z,8.50
2023-05-18T01:02:53.073Z,8.45
2023-05-18T01:05:22.324Z,8.48
2023-05-18T01:07:50.559Z,8.50
2023-05-18T01:10:19.612Z,8.07
2023-05-18T01:12:52.788Z,8.82
2023-05-18T01:15:23.954Z,8.85
2023-05-18T01:18:21.848Z,8.75
2023-05-18T01:21:11.054Z,9.30
2023-05-18T01:23:44.911Z,9.02
2023-05-18T01:26:24.784Z,8.63
2023-05-18T01:28:54.139Z,8.98
2023-05-18T01:31:22.712Z,8.38
2023-05-18T01:33:49.806Z,9.13
2023-05-18T01:36:16.873Z,9.15
2023-05-18T01:38:45.307Z,9.30
2023-05-18T01:41:21.286Z,9.27
2023-05-18T01:44:15.966Z,9.07
2023-05-18T01:47:14.505Z,9.85
2023-05-18T01:50:08.469Z,10.02
2023-05-18T01:52:46.333Z,9.80
2023-05-18T01:55:15.630Z,10.25
2023-05-18T01:57:45.611Z,10.63
2023-05-18T02:00:17.475Z,10.98
2023-05-18T02:02:45.177Z,11.05
2023-05-18T02:05:14.771Z,11.45
2023-05-18T02:07:44.161Z,11.68
2023-05-18T02:10:12.010Z,11.43
2023-05-18T02:12:39.039Z,12.82
2023-05-18T02:15:07.086Z,12.10
2023-05-18T02:17:38.111Z,12.02
2023-05-18T02:20:08.322Z,12.43
2023-05-18T02:22:36.127Z,13.27
2023-05-18T02:25:05.202Z,13.32
2023-05-18T02:27:33.462Z,13.68
2023-05-18T02:30:00.961Z,12.98
2023-05-18T02:32:28.130Z,13.55
2023-05-18T02:34:55.098Z,14.50
2023-05-18T02:37:23.320Z,14.10
2023-05-18T02:39:50.614Z,14.20
2023-05-18T02:42:17.636Z,13.63
2023-05-18T02:44:44.729Z,14.15
2023-05-18T02:47:15.251Z,14.95
2023-05-18T02:49:42.495Z,14.80
2023-05-18T02:52:09.416Z,14.55
2023-05-18T02:54:36.580Z,14.95
2023-05-18T02:57:06.356Z,15.18
2023-05-18T02:59:42.080Z,15.32
2023-05-18T03:02:09.094Z,16.75
2023-05-18T03:04:37.886Z,15.95
2023-05-18T03:07:05.082Z,16.45
2023-05-18T03:09:33.453Z,17.35
2023-05-18T03:12:01.289Z,17.63
2023-05-18T03:14:28.902Z,18.60
2023-05-18T03:16:57.913Z,17.90
2023-05-18T03:19:27.112Z,18.80
2023-05-18T03:21:54.511Z,19.20
2023-05-18T03:24:21.817Z,18.27
2023-05-18T03:26:50.163Z,19.20
2023-05-18T03:29:17.423Z,20.02
2023-05-18T03:31:44.800Z,21.42
2023-05-18T03:34:13.321Z,21.55
2023-05-18T03:36:42.465Z,22.23
2023-05-18T03:39:10.540Z,20.80
2023-05-18T03:41:38.797Z,21.83
2023-05-18T03:44:06.147Z,22.00
2023-05-18T03:46:33.774Z,22.10
2023-05-18T03:49:01.946Z,21.25
2023-05-18T03:51:34.575Z,21.63
2023-05-18T03:54:02.477Z,21.63
2023-05-18T03:56:31.334Z,20.05
2023-05-18T03:58:58.954Z,19.33
2023-05-18T04:01:26.229Z,19.50
2023-05-18T04:03:56.540Z,20.42
2023-05-18T04:06:26.264Z,19.15
2023-05-18T04:08:53.695Z,17.80
2023-05-18T04:11:21.552Z,17.27
2023-05-18T04:13:49.819Z,17.08
2023-05-18T04:16:17.059Z,17.25
2023-05-18T04:18:44.369Z,17.40
2023-05-18T04:21:11.820Z,17.33
2023-05-18T04:23:39.224Z,16.83
2023-05-18T04:26:07.048Z,16.55
2023-05-18T04:28:34.421Z,15.48
2023-05-18T04:31:01.879Z,15.90
2023-05-18T04:33:29.988Z,17.00
2023-05-18T04:35:58.836Z,15.77
2023-05-18T04:38:26.215Z,14.63
2023-05-18T04:40:53.784Z,15.05
2023-05-18T04:43:21.394Z,15.23
2023-05-18T04:45:50.590Z,15.40
2023-05-18T04:48:19.354Z,15.48
2023-05-18T04:50:47.192Z,14.75
2023-05-18T04:53:18.130Z,16.05
2023-05-18T04:55:46.573Z,15.73
2023-05-18T04:58:13.676Z,15.07
2023-05-18T05:00:40.718Z,15.32
2023-05-18T05:03:07.766Z,14.85
2023-05-18T05:05:35.541Z,15.07
2023-05-18T05:08:04.715Z,14.15
2023-05-18T05:10:31.777Z,13.70
2023-05-18T05:12:59.611Z,13.98
2023-05-18T05:15:26.725Z,14.10
2023-05-18T05:17:54.769Z,12.98
2023-05-18T05:20:22.479Z,12.48
2023-05-18T05:22:49.881Z,12.48
2023-05-18T05:25:22.516Z,12.85
2023-05-18T05:27:50.690Z,11.93
2023-05-18T05:30:20.298Z,11.15
2023-05-18T05:32:47.409Z,10.70
2023-05-18T05:35:14.412Z,10.10
2023-05-18T05:37:42.116Z,23.15
2023-05-18T05:40:10.370Z,15.35
2023-05-18T05:42:42.445Z,9.30
2023-05-18T05:45:09.811Z,9.25
2023-05-18T05:47:52.998Z,9.00
2023-05-18T05:50:21.365Z,8.57
2023-05-18T05:52:50.090Z,7.97
2023-05-18T05:55:17.931Z,7.80
2023-05-18T05:57:45.037Z,7.55
2023-05-18T06:00:13.276Z,7.20
2023-05-18T06:02:52.885Z,7.57
2023-05-18T06:05:26.449Z,7.43
2023-05-18T06:07:55.501Z,8.30
2023-05-18T06:10:22.651Z,8.77
2023-05-18T06:12:49.633Z,8.43
2023-05-18T06:15:16.841Z,9.88
2023-05-18T06:17:44.210Z,9.38
2023-05-18T06:20:13.832Z,9.10
2023-05-18T06:22:41.210Z,8.35
2023-05-18T06:25:17.681Z,9.13
2023-05-18T06:28:07.845Z,9.05
2023-05-18T06:31:01.421Z,9.68
2023-05-18T06:33:31.846Z,9.80
2023-05-18T06:35:59.021Z,8.45
2023-05-18T06:38:26.116Z,9.10
2023-05-18T06:40:53.201Z,8.45
2023-05-18T06:43:20.349Z,8.88
2023-05-18T06:45:52.800Z,7.88
2023-05-18T06:48:39.210Z,8.27
2023-05-18T06:51:07.070Z,9.00
2023-05-18T06:53:34.145Z,7.97
2023-05-18T06:56:01.272Z,7.55
2023-05-18T06:58:28.250Z,6.70
2023-05-18T07:00:57.290Z,7.10
2023-05-18T07:03:24.376Z,6.53
2023-05-18T07:05:51.399Z,6.47
2023-05-18T07:08:18.486Z,6.82
2023-05-18T07:10:45.512Z,6.07
2023-05-18T07:13:12.630Z,6.10
2023-05-18T07:15:39.705Z,5.05
2023-05-18T07:18:06.701Z,5.45
2023-05-18T07:20:33.777Z,4.53
2023-05-18T07:23:00.733Z,5.68
2023-05-18T07:25:27.851Z,4.03
2023-05-18T07:27:55.025Z,3.40
2023-05-18T07:30:22.812Z,5.13
2023-05-18T07:32:51.306Z,3.85
2023-05-18T07:35:22.040Z,3.55
2023-05-18T07:37:51.767Z,3.22
2023-05-18T07:40:18.874Z,3.83
2023-05-18T07:42:46.078Z,3.42
2023-05-18T07:45:13.510Z,3.70
2023-05-18T07:47:40.744Z,3.63
2023-05-18T07:50:08.428Z,3.45
2023-05-18T07:52:35.538Z,3.67
2023-05-18T07:55:03.275Z,3.55
2023-05-18T07:57:31.018Z,5.25
2023-05-18T07:59:58.025Z,4.20
2023-05-18T08:02:25.170Z,4.90
2023-05-18T08:04:53.427Z,3.78
2023-05-18T08:07:21.527Z,4.10
2023-05-18T08:09:48.621Z,3.70
2023-05-18T08:12:15.654Z,3.80
2023-05-18T08:14:42.588Z,3.40
2023-05-18T08:17:09.753Z,3.67
2023-05-18T08:19:37.250Z,3.47
2023-05-18T08:22:05.063Z,3.13
2023-05-18T08:24:32.096Z,2.60
2023-05-18T08:26:59.639Z,2.70
2023-05-18T08:29:26.687Z,2.80
2023-05-18T08:31:53.678Z,2.80
2023-05-18T08:34:20.833Z,2.42
2023-05-18T08:36:47.980Z,2.38
2023-05-18T08:39:15.101Z,2.70
2023-05-18T08:41:56.848Z,2.13
2023-05-18T08:44:29.569Z,2.28
2023-05-18T08:46:56.641Z,2.30
2023-05-18T08:49:25.850Z,2.25
2023-05-18T08:51:57.700Z,2.30
2023-05-18T08:54:24.997Z,2.50
2023-05-18T08:56:53.444Z,2.17
2023-05-18T08:59:24.655Z,1.90
2023-05-18T09:01:52.487Z,2.40
2023-05-18T09:04:20.919Z,2.70
2023-05-18T09:06:48.783Z,2.25
2023-05-18T09:09:16.304Z,1.92
2023-05-18T09:11:44.160Z,2.42
2023-05-18T09:14:11.884Z,1.85
2023-05-18T09:16:38.985Z,2.22
2023-05-18T09:19:06.579Z,3.10
2023-05-18T09:21:33.790Z,2.60
2023-05-18T09:24:01.327Z,66.65
2023-05-18T09:26:28.405Z,4.95
2023-05-18T09:28:55.447Z,3.10
2023-05-18T09:31:24.759Z,3.25
2023-05-18T09:33:52.504Z,2.70
2023-05-18T09:36:26.133Z,3.05
2023-05-18T09:38:53.339Z,2.88
2023-05-18T09:41:20.340Z,3.00
2023-05-18T09:43:53.323Z,2.50
2023-05-18T09:46:21.083Z,2.58
2023-05-18T09:48:53.071Z,2.88
2023-05-18T09:51:21.839Z,2.35
2023-05-18T09:53:59.254Z,2.40
2023-05-18T09:56:27.342Z,2.70
2023-05-18T09:58:55.312Z,2.50
2023-05-18T10:01:23.039Z,2.78
2023-05-18T10:03:50.398Z,2.50
2023-05-18T10:06:20.074Z,2.63
2023-05-18T10:08:47.228Z,2.72
2023-05-18T10:11:19.736Z,2.65
2023-05-18T10:13:47.074Z,2.47
2023-05-18T10:16:16.660Z,2.38
2023-05-18T10:18:43.976Z,2.65
2023-05-18T10:21:12.692Z,2.25
2023-05-18T10:23:41.056Z,2.38
2023-05-18T10:26:09.902Z,2.20
2023-05-18T10:28:43.297Z,2.35
2023-05-18T10:31:10.746Z,2.72
2023-05-18T10:33:38.722Z,2.80
2023-05-18T10:36:06.509Z,2.95
2023-05-18T10:38:36.733Z,3.00
2023-05-18T10:41:06.302Z,3.20
2023-05-18T10:43:34.193Z,2.72
2023-05-18T10:46:01.665Z,2.92
2023-05-18T10:48:30.251Z,2.75
2023-05-18T10:50:58.471Z,3.17
2023-05-18T10:53:32.164Z,3.08
2023-05-18T10:55:59.476Z,3.30
2023-05-18T10:58:28.221Z,2.40
2023-05-18T11:01:00.183Z,2.60
2023-05-18T11:03:28.656Z,2.78
2023-05-18T11:06:12.975Z,2.20
2023-05-18T11:08:46.394Z,2.30
2023-05-18T11:11:13.974Z,2.30
2023-05-18T11:13:49.690Z,2.58
2023-05-18T11:16:18.354Z,3.03
2023-05-18T11:18:47.309Z,2.67
2023-05-18T11:21:36.344Z,3.13
2023-05-18T11:24:35.540Z,2.65
2023-05-18T11:27:24.493Z,3.22
2023-05-18T11:29:57.738Z,2.88
2023-05-18T11:32:37.136Z,3.30
2023-05-18T11:35:08.753Z,3.20
2023-05-18T11:37:38.841Z,2.90
2023-05-18T11:40:11.332Z,2.38
2023-05-18T11:42:38.925Z,2.83
2023-05-18T11:45:10.992Z,2.65
2023-05-18T11:47:42.620Z,3.42
2023-05-18T11:50:14.914Z,3.42
2023-05-18T11:52:47.190Z,2.95
2023-05-18T11:55:16.994Z,3.17
2023-05-18T11:57:48.267Z,2.70
2023-05-18T12:00:16.371Z,2.90
2023-05-18T12:02:48.350Z,3.05
2023-05-18T12:05:15.972Z,2.72
2023-05-18T12:07:44.794Z,3.05
2023-05-18T12:10:14.746Z,2.75
2023-05-18T12:12:43.044Z,2.55
2023-05-18T12:15:11.939Z,2.40
2023-05-18T12:17:46.689Z,2.50
2023-05-18T12:20:18.837Z,2.45
2023-05-18T12:22:50.223Z,2.33
2023-05-18T12:25:17.332Z,2.50
2023-05-18T12:27:45.769Z,3.30
2023-05-18T12:30:23.624Z,3.25
2023-05-18T12:32:56.000Z,3.60
2023-05-18T12:35:23.946Z,3.35
2023-05-18T12:37:51.264Z,2.58
2023-05-18T12:40:19.694Z,2.50
2023-05-18T12:42:56.967Z,3.00
2023-05-18T12:45:26.724Z,3.03
2023-05-18T12:47:55.460Z,2.85
2023-05-18T12:50:25.054Z,3.00
2023-05-18T12:52:52.220Z,3.03
2023-05-18T12:55:23.221Z,2.90
2023-05-18T12:58:15.925Z,2.70
2023-05-18T13:00:45.214Z,41.85
2023-05-18T13:03:23.007Z,4.13
2023-05-18T13:06:05.060Z,2.92
2023-05-18T13:08:33.035Z,3.40
2023-05-18T13:11:12.887Z,3.50
2023-05-18T13:14:10.704Z,3.60
2023-05-18T13:16:39.329Z,4.00
2023-05-18T13:19:10.538Z,3.90
2023-05-18T13:21:37.972Z,4.28
2023-05-18T13:24:05.469Z,3.80
2023-05-18T13:26:33.011Z,3.72
2023-05-18T13:29:00.479Z,3.33
2023-05-18T13:31:29.630Z,4.22
2023-05-18T13:33:57.202Z,3.72
2023-05-18T13:36:24.229Z,3.35
2023-05-18T13:38:52.358Z,3.70
2023-05-18T13:41:19.470Z,4.00
2023-05-18T13:43:46.409Z,3.83
2023-05-18T13:46:13.554Z,4.43
2023-05-18T13:48:40.538Z,3.50
2023-05-18T13:51:07.398Z,4.38
2023-05-18T13:53:34.419Z,8.00
2023-05-18T13:56:01.419Z,4.85
2023-05-18T13:58:28.293Z,4.07
2023-05-18T14:00:55.521Z,3.92
2023-05-18T14:03:24.279Z,3.50
2023-05-18T14:05:51.521Z,3.55
2023-05-18T14:08:18.393Z,3.40
2023-05-18T14:10:45.388Z,4.13
2023-05-18T14:13:12.366Z,3.80
2023-05-18T14:15:39.278Z,3.40
2023-05-18T14:18:06.341Z,4.18
2023-05-18T14:20:33.898Z,4.55
2023-05-18T14:23:03.622Z,3.70
2023-05-18T14:25:31.415Z,4.30
2023-05-18T14:27:58.338Z,3.97
2023-05-18T14:30:25.197Z,3.40
2023-05-18T14:32:52.210Z,3.83
2023-05-18T14:35:19.217Z,3.63
2023-05-18T14:37:46.103Z,3.40
2023-05-18T14:40:13.122Z,3.53
2023-05-18T14:42:40.042Z,3.30
2023-05-18T14:45:07.626Z,3.60
2023-05-18T14:47:34.624Z,3.10
2023-05-18T14:50:01.548Z,2.28
2023-05-18T14:52:28.429Z,2.80
2023-05-18T14:54:55.475Z,2.92
2023-05-18T14:57:23.667Z,2.80
2023-05-18T14:59:51.647Z,2.80
2023-05-18T15:02:18.669Z,2.78
2023-05-18T15:04:46.147Z,2.55
2023-05-18T15:07:13.073Z,2.75
2023-05-18T15:09:39.985Z,2.47
2023-05-18T15:12:07.002Z,2.38
2023-05-18T15:14:34.018Z,2.15
2023-05-18T15:17:00.995Z,2.10
2023-05-18T15:19:28.024Z,2.10
2023-05-18T15:21:55.015Z,1.92
2023-05-18T15:24:21.943Z,2.00
2023-05-18T15:26:48.934Z,2.05
2023-05-18T15:29:15.918Z,1.85
2023-05-18T15:31:42.933Z,2.13
2023-05-18T15:34:09.845Z,2.25
2023-05-18T15:36:38.179Z,2.03
2023-05-18T15:39:05.206Z,2.15
2023-05-18T15:41:34.229Z,2.20
2023-05-18T15:44:04.502Z,2.38
2023-05-18T15:46:33.129Z,2.10
2023-05-18T15:49:00.248Z,2.03
2023-05-18T15:51:27.420Z,2.75
2023-05-18T15:53:54.325Z,2.10
2023-05-18T15:56:21.942Z,2.22
2023-05-18T15:58:48.898Z,2.40
2023-05-18T16:01:15.862Z,2.70
2023-05-18T16:03:43.906Z,2.67
2023-05-18T16:06:11.030Z,3.22
2023-05-18T16:08:37.922Z,2.67
2023-05-18T16:11:06.994Z,2.67
2023-05-18T16:13:34.074Z,3.72
2023-05-18T16:16:01.065Z,3.17
2023-05-18T16:18:28.046Z,3.10
2023-05-18T16:20:55.151Z,3.20
2023-05-18T16:23:22.208Z,2.67
2023-05-18T16:25:49.153Z,2.60
2023-05-18T16:28:27.918Z,2.42
2023-05-18T16:30:54.873Z,2.15
2023-05-18T16:33:21.782Z,2.13
2023-05-18T16:35:48.704Z,2.05
2023-05-18T16:38:15.850Z,2.53
2023-05-18T16:40:43.031Z,2.13
2023-05-18T16:43:10.060Z,2.47
2023-05-18T16:45:36.940Z,2.50
2023-05-18T16:48:04.084Z,2.15
2023-05-18T16:50:31.803Z,2.50
2023-05-18T16:52:58.914Z,2.40
2023-05-18T16:55:26.108Z,2.22
2023-05-18T16:57:53.184Z,2.40
2023-05-18T17:00:20.837Z,2.55
2023-05-18T17:02:48.085Z,2.38
2023-05-18T17:05:17.190Z,2.45
2023-05-18T17:07:44.209Z,2.50
2023-05-18T17:10:11.177Z,2.70
2023-05-18T17:12:38.529Z,2.05
2023-05-18T17:15:05.901Z,2.40
2023-05-18T17:17:32.818Z,2.15
2023-05-18T17:19:59.804Z,2.75
2023-05-18T17:22:26.772Z,2.50
2023-05-18T17:24:53.802Z,2.47
2023-05-18T17:27:21.296Z,2.92
2023-05-18T17:29:48.210Z,2.65
2023-05-18T17:32:15.147Z,2.03
2023-05-18T17:34:42.068Z,2.85
2023-05-18T17:37:09.001Z,2.50
2023-05-18T17:39:35.964Z,2.42
2023-05-18T17:42:03.367Z,2.35
2023-05-18T17:44:30.288Z,2.00
2023-05-18T17:46:57.602Z,2.35
2023-05-18T17:49:24.625Z,2.58
2023-05-18T17:51:52.397Z,2.53
2023-05-18T17:54:19.337Z,2.20
2023-05-18T17:56:46.667Z,2.22
2023-05-18T17:59:13.659Z,3.10
2023-05-18T18:01:40.783Z,2.50
2023-05-18T18:04:07.983Z,2.78
2023-05-18T18:06:36.007Z,3.10
2023-05-18T18:09:07.396Z,3.20
2023-05-18T18:11:34.722Z,3.80
2023-05-18T18:14:02.354Z,2.58
2023-05-18T18:16:29.539Z,3.30
2023-05-18T18:18:57.563Z,2.60
2023-05-18T18:21:24.603Z,3.08
2023-05-18T18:23:51.634Z,3.05
2023-05-18T18:26:18.641Z,2.67
2023-05-18T18:28:45.856Z,3.05
2023-05-18T18:31:12.964Z,2.78
2023-05-18T18:33:39.974Z,2.30
2023-05-18T18:36:07.571Z,2.10
2023-05-18T18:38:34.613Z,2.50
2023-05-18T18:41:04.340Z,2.40
2023-05-18T18:43:31.525Z,2.33
2023-05-18T18:45:59.470Z,2.05
2023-05-18T18:48:26.947Z,2.00
2023-05-18T18:50:54.130Z,1.92
2023-05-18T18:53:21.349Z,1.90
2023-05-18T18:55:48.723Z,2.47
2023-05-18T18:58:16.068Z,1.77
2023-05-18T19:00:43.126Z,2.30
2023-05-18T19:03:10.438Z,2.03
2023-05-18T19:05:39.154Z,2.05
2023-05-18T19:08:06.350Z,2.10
2023-05-18T19:10:34.402Z,2.15
2023-05-18T19:13:05.606Z,2.47
2023-05-18T19:15:34.571Z,2.15
2023-05-18T19:18:02.318Z,1.90
2023-05-18T19:20:29.415Z,2.35
2023-05-18T19:22:56.459Z,2.20
2023-05-18T19:25:24.642Z,2.38
2023-05-18T19:27:53.112Z,2.50
2023-05-18T19:30:21.605Z,2.47
2023-05-18T19:32:49.955Z,2.05
2023-05-18T19:35:19.789Z,5.78
2023-05-18T19:37:47.563Z,7.07
2023-05-18T19:40:14.790Z,2.50
2023-05-18T19:42:41.788Z,2.40
2023-05-18T19:45:09.222Z,2.33
2023-05-18T19:47:36.541Z,2.33
2023-05-18T19:50:04.517Z,2.30
2023-05-18T19:52:33.547Z,2.55
2023-05-18T19:55:02.059Z,2.22
2023-05-18T19:57:29.805Z,2.08
2023-05-18T19:59:57.693Z,2.35
2023-05-18T20:02:25.189Z,2.08
2023-05-18T20:04:53.542Z,2.20
2023-05-18T20:07:20.732Z,1.90
2023-05-18T20:09:47.937Z,2.40
2023-05-18T20:12:14.944Z,2.15
2023-05-18T20:14:43.495Z,2.72
2023-05-18T20:17:10.547Z,2.10
2023-05-18T20:19:37.839Z,2.42
2023-05-18T20:22:05.734Z,2.60
2023-05-18T20:24:32.691Z,2.60
2023-05-18T20:26:59.860Z,2.38
2023-05-18T20:29:27.063Z,2.60
2023-05-18T20:31:55.120Z,2.47
2023-05-18T20:34:22.278Z,3.08
2023-05-18T20:36:49.302Z,2.80
2023-05-18T20:39:16.382Z,2.97
2023-05-18T20:41:43.463Z,2.75
2023-05-18T20:44:11.523Z,2.70
2023-05-18T20:46:42.197Z,2.45
2023-05-18T20:49:12.239Z,2.30
2023-05-18T20:51:39.346Z,2.50
2023-05-18T20:54:06.355Z,2.30
2023-05-18T20:56:34.036Z,2.58
2023-05-18T20:59:06.652Z,2.53
2023-05-18T21:01:39.128Z,2.60
2023-05-18T21:04:06.674Z,2.50
2023-05-18T21:06:34.426Z,3.50
2023-05-18T21:09:01.754Z,3.63
2023-05-18T21:11:30.868Z,2.75
2023-05-18T21:13:57.823Z,2.55
2023-05-18T21:16:24.929Z,2.88
2023-05-18T21:18:52.012Z,2.92
2023-05-18T21:21:18.995Z,3.33
2023-05-18T21:23:46.178Z,3.17
2023-05-18T21:26:13.245Z,3.58
2023-05-18T21:28:40.296Z,3.95
2023-05-18T21:31:07.574Z,3.80
2023-05-18T21:33:34.648Z,3.38
2023-05-18T21:36:01.816Z,3.65
2023-05-18T21:38:28.894Z,3.92
2023-05-18T21:40:56.591Z,3.40
2023-05-18T21:43:24.256Z,3.50
2023-05-18T21:45:51.406Z,3.67
2023-05-18T21:48:18.417Z,4.00
2023-05-18T21:50:45.452Z,3.45
2023-05-18T21:53:12.547Z,3.55
2023-05-18T21:55:39.631Z,3.78
2023-05-18T21:58:06.704Z,4.05
2023-05-18T22:00:35.471Z,4.15
2023-05-18T22:03:02.598Z,3.70
2023-05-18T22:05:29.803Z,3.33
2023-05-18T22:07:58.957Z,4.32
2023-05-18T22:10:25.949Z,16.83
2023-05-18T22:12:53.024Z,3.75
2023-05-18T22:15:22.441Z,3.17
2023-05-18T22:17:49.829Z,3.17
2023-05-18T22:20:17.276Z,3.17
2023-05-18T22:22:44.424Z,3.08
2023-05-18T22:25:11.959Z,2.88
2023-05-18T22:27:39.177Z,3.00
2023-05-18T22:30:07.473Z,2.88
2023-05-18T22:32:34.660Z,3.30
2023-05-18T22:35:02.223Z,3.13
2023-05-18T22:37:29.353Z,3.38
2023-05-18T22:39:56.324Z,3.28
2023-05-18T22:42:23.400Z,3.05
2023-05-18T22:44:51.314Z,3.67
2023-05-18T22:47:21.507Z,3.55
2023-05-18T22:49:49.317Z,3.60
2023-05-18T22:52:18.433Z,3.20
2023-05-18T22:54:45.729Z,3.60
2023-05-18T22:57:13.026Z,3.30
2023-05-18T22:59:40.007Z,3.63
2023-05-18T23:02:07.428Z,3.13
2023-05-18T23:04:34.972Z,3.38
2023-05-18T23:07:04.092Z,3.20
2023-05-18T23:09:31.345Z,3.50
2023-05-18T23:12:01.149Z,2.95
2023-05-18T23:14:32.510Z,3.22
2023-05-18T23:17:00.542Z,3.42
2023-05-18T23:19:27.867Z,3.70
2023-05-18T23:21:55.598Z,3.40
2023-05-18T23:24:22.582Z,3.25
2023-05-18T23:26:49.685Z,3.47
2023-05-18T23:29:16.924Z,4.07
2023-05-18T23:31:43.966Z,3.42
2023-05-18T23:34:11.413Z,4.53
2023-05-18T23:36:39.788Z,4.10
2023-05-18T23:39:07.248Z,4.35
2023-05-18T23:41:35.809Z,4.43
2023-05-18T23:44:03.264Z,4.10
2023-05-18T23:46:31.266Z,4.05
2023-05-18T23:48:59.899Z,4.28
2023-05-18T23:51:29.862Z,4.20
2023-05-18T23:53:58.697Z,4.50
2023-05-18T23:56:26.008Z,4.30
2023-05-18T23:58:53.209Z,4.18
